createdAt,value
2019-04-06T00:00:37.574Z,135.87
2019-04-06T00:03:09.946Z,138.57
2019-04-06T00:05:42.319Z,134.70
2019-04-06T00:08:15.270Z,132.87
2019-04-06T00:10:47.741Z,129.33
2019-04-06T00:13:21.376Z,135.43
2019-04-06T00:15:54.260Z,137.33
2019-04-06T00:18:26.665Z,140.33
2019-04-06T00:20:59.624Z,135.30
2019-04-06T00:23:31.616Z,142.30
2019-04-06T00:26:04.471Z,122.87
2019-04-06T00:28:36.520Z,122.17
2019-04-06T00:31:33.071Z,117.50
2019-04-06T00:34:08.226Z,103.07
2019-04-06T00:36:42.182Z,113.50
2019-04-06T00:39:15.019Z,104.37
2019-04-06T00:41:48.401Z,100.45
2019-04-06T00:44:20.093Z,105.15
2019-04-06T00:46:53.312Z,103.97
2019-04-06T00:49:28.877Z,98.03
2019-04-06T00:52:01.637Z,107.52
2019-04-06T00:54:33.673Z,110.57
2019-04-06T00:57:06.921Z,105.40
2019-04-06T00:59:40.452Z,102.95
2019-04-06T01:02:11.974Z,107.50
2019-04-06T01:04:49.127Z,112.83
2019-04-06T01:07:23.256Z,116.42
2019-04-06T01:10:13.827Z,122.42
2019-04-06T01:12:45.855Z,114.52
2019-04-06T01:15:19.076Z,110.65
2019-04-06T01:17:52.693Z,111.52
2019-04-06T01:20:25.852Z,117.97
2019-04-06T01:22:57.905Z,120.87
2019-04-06T01:25:40.705Z,107.47
2019-04-06T01:28:12.680Z,122.37
2019-04-06T01:30:45.065Z,173.17
2019-04-06T01:33:17.576Z,138.88
2019-04-06T01:35:49.544Z,172.00
2019-04-06T01:38:21.580Z,148.40
2019-04-06T01:40:54.545Z,150.50
2019-04-06T01:43:45.265Z,154.45
2019-04-06T01:46:17.770Z,153.32
2019-04-06T01:48:49.920Z,156.80
2019-04-06T01:51:21.617Z,168.25
2019-04-06T01:53:55.698Z,159.67
2019-04-06T01:56:28.253Z,122.00
2019-04-06T01:58:59.760Z,112.25
2019-04-06T02:01:45.149Z,112.72
2019-04-06T02:04:18.645Z,109.85
2019-04-06T02:06:51.139Z,112.77
2019-04-06T02:09:23.002Z,107.03
2019-04-06T02:11:54.603Z,104.78
2019-04-06T02:14:26.225Z,113.92
2019-04-06T02:16:58.271Z,112.85
2019-04-06T02:19:30.512Z,105.30
2019-04-06T02:22:03.020Z,107.58
2019-04-06T02:24:35.696Z,104.70
2019-04-06T02:27:07.699Z,107.87
2019-04-06T02:29:39.199Z,116.88
2019-04-06T02:32:29.105Z,111.40
2019-04-06T02:35:19.312Z,119.57
2019-04-06T02:38:16.172Z,121.65
2019-04-06T02:41:05.129Z,121.95
2019-04-06T02:43:38.365Z,122.58
2019-04-06T02:46:10.766Z,134.05
2019-04-06T02:48:43.329Z,136.18
2019-04-06T02:51:15.228Z,135.88
2019-04-06T02:53:47.187Z,135.82
2019-04-06T02:56:19.747Z,136.43
2019-04-06T02:58:51.811Z,130.07
2019-04-06T03:01:24.587Z,138.57
2019-04-06T03:03:57.611Z,136.60
2019-04-06T03:06:29.286Z,132.97
2019-04-06T03:09:01.509Z,126.07
2019-04-06T03:11:53.739Z,127.78
2019-04-06T03:14:25.926Z,137.60
2019-04-06T03:16:58.179Z,145.12
2019-04-06T03:19:29.913Z,139.45
2019-04-06T03:22:01.434Z,140.68
2019-04-06T03:24:33.911Z,145.25
2019-04-06T03:27:05.905Z,140.70
2019-04-06T03:29:37.951Z,144.43
2019-04-06T03:32:09.992Z,147.15
2019-04-06T03:34:43.396Z,135.07
2019-04-06T03:37:16.159Z,137.92
2019-04-06T03:39:48.577Z,120.17
2019-04-06T03:42:21.733Z,120.92
2019-04-06T03:44:56.069Z,123.40
2019-04-06T03:47:28.008Z,128.15
2019-04-06T03:50:10.745Z,117.20
2019-04-06T03:52:42.836Z,125.65
2019-04-06T03:55:14.913Z,140.12
2019-04-06T03:57:46.855Z,136.97
2019-04-06T04:00:18.648Z,130.37
2019-04-06T04:02:50.157Z,145.43
2019-04-06T04:05:22.935Z,145.40
2019-04-06T04:07:55.760Z,253.40
2019-04-06T04:10:39.646Z,160.72
2019-04-06T04:13:13.197Z,145.28
2019-04-06T04:15:46.436Z,158.03
2019-04-06T04:18:19.467Z,146.13
2019-04-06T04:20:51.052Z,151.60
2019-04-06T04:23:23.196Z,149.38
2019-04-06T04:25:56.244Z,129.40
2019-04-06T04:28:28.345Z,141.75
2019-04-06T04:31:02.130Z,147.28
2019-04-06T04:33:35.248Z,158.25
2019-04-06T04:36:07.282Z,154.80
2019-04-06T04:38:40.553Z,131.97
2019-04-06T04:41:13.087Z,111.25
2019-04-06T04:43:45.330Z,115.90
2019-04-06T04:46:17.718Z,107.27
2019-04-06T04:48:50.219Z,93.20
2019-04-06T04:51:23.147Z,84.20
2019-04-06T04:53:56.116Z,93.37
2019-04-06T04:56:28.076Z,91.27
2019-04-06T04:59:01.228Z,96.93
2019-04-06T05:01:34.437Z,85.30
2019-04-06T05:04:06.803Z,84.37
2019-04-06T05:06:40.275Z,90.33
2019-04-06T05:09:12.649Z,77.23
2019-04-06T05:11:45.766Z,84.67
2019-04-06T05:14:53.154Z,84.43
2019-04-06T05:17:26.152Z,92.60
2019-04-06T05:19:59.063Z,102.10
2019-04-06T05:22:31.512Z,109.10
2019-04-06T05:25:04.713Z,109.90
2019-04-06T05:27:38.093Z,112.93
2019-04-06T05:30:12.742Z,119.83
2019-04-06T05:32:47.201Z,131.63
2019-04-06T05:35:19.291Z,136.07
2019-04-06T05:37:51.646Z,132.23
2019-04-06T05:40:25.300Z,136.13
2019-04-06T05:42:57.795Z,128.97
2019-04-06T05:45:42.348Z,130.43
2019-04-06T05:48:14.924Z,136.03
2019-04-06T05:50:47.211Z,123.20
2019-04-06T05:53:21.186Z,111.43
2019-04-06T05:55:54.533Z,118.80
2019-04-06T05:58:28.240Z,102.87
2019-04-06T06:01:00.242Z,106.83
2019-04-06T06:03:32.203Z,104.47
2019-04-06T06:06:04.705Z,101.53
2019-04-06T06:08:38.623Z,90.43
2019-04-06T06:11:11.200Z,91.73
2019-04-06T06:13:44.065Z,83.97
2019-04-06T06:16:16.275Z,80.50
2019-04-06T06:18:48.853Z,83.50
2019-04-06T06:21:23.024Z,97.93
2019-04-06T06:23:55.301Z,75.20
2019-04-06T06:26:29.025Z,74.03
2019-04-06T06:29:02.437Z,78.60
2019-04-06T06:31:36.218Z,68.93
2019-04-06T06:34:11.581Z,72.50
2019-04-06T06:36:44.603Z,69.40
2019-04-06T06:39:17.596Z,80.43
2019-04-06T06:41:51.593Z,77.90
2019-04-06T06:44:25.028Z,71.53
2019-04-06T06:46:58.111Z,66.17
2019-04-06T06:49:31.057Z,64.50
2019-04-06T06:52:03.981Z,70.97
2019-04-06T06:54:36.839Z,67.40
2019-04-06T06:57:10.009Z,66.97
2019-04-06T06:59:42.259Z,75.37
2019-04-06T07:02:14.849Z,72.97
2019-04-06T07:04:50.345Z,79.50
2019-04-06T07:07:24.267Z,74.03
2019-04-06T07:10:05.069Z,72.90
2019-04-06T07:12:34.245Z,63.40
2019-04-06T07:15:07.608Z,78.07
2019-04-06T07:17:40.008Z,77.83
2019-04-06T07:20:13.552Z,87.87
2019-04-06T07:22:45.747Z,88.77
2019-04-06T07:25:18.195Z,77.30
2019-04-06T07:27:50.600Z,73.93
2019-04-06T07:30:25.755Z,83.70
2019-04-06T07:32:58.603Z,89.53
2019-04-06T07:35:32.740Z,92.17
2019-04-06T07:38:06.340Z,88.57
2019-04-06T07:40:38.912Z,99.83
2019-04-06T07:43:12.004Z,94.03
2019-04-06T07:45:46.794Z,84.83
2019-04-06T07:48:20.062Z,88.70
2019-04-06T07:50:53.892Z,84.87
2019-04-06T07:53:26.591Z,89.00
2019-04-06T07:55:59.849Z,89.60
2019-04-06T07:58:33.361Z,84.90
2019-04-06T08:01:06.906Z,74.00
2019-04-06T08:03:41.576Z,76.37
2019-04-06T08:06:15.621Z,100.43
2019-04-06T08:08:49.194Z,90.33
2019-04-06T08:11:22.405Z,76.30
2019-04-06T08:13:56.839Z,70.70
2019-04-06T08:16:30.428Z,73.77
2019-04-06T08:19:03.303Z,76.40
2019-04-06T08:21:37.397Z,75.93
2019-04-06T08:24:11.237Z,73.80
2019-04-06T08:26:46.638Z,75.83
2019-04-06T08:29:23.574Z,61.90
2019-04-06T08:31:56.953Z,71.97
2019-04-06T08:34:31.246Z,82.03
2019-04-06T08:37:05.981Z,84.77
2019-04-06T08:39:39.462Z,81.30
2019-04-06T08:42:13.684Z,92.07
2019-04-06T08:44:47.822Z,96.70
2019-04-06T08:47:21.008Z,96.53
2019-04-06T08:49:54.000Z,96.30
2019-04-06T08:52:27.881Z,91.03
2019-04-06T08:55:00.263Z,91.47
2019-04-06T08:57:43.736Z,89.63
2019-04-06T09:00:16.731Z,92.83
2019-04-06T09:02:49.795Z,98.17
2019-04-06T09:05:24.360Z,91.53
2019-04-06T09:07:57.500Z,100.00
2019-04-06T09:10:31.787Z,99.07
2019-04-06T09:13:05.457Z,105.37
2019-04-06T09:15:39.477Z,152.20
2019-04-06T09:18:11.986Z,96.20
2019-04-06T09:20:45.806Z,102.60
2019-04-06T09:23:19.469Z,101.33
2019-04-06T09:25:52.733Z,102.53
2019-04-06T09:28:25.616Z,105.10
2019-04-06T09:30:58.625Z,98.73
2019-04-06T09:33:32.432Z,101.63
2019-04-06T09:36:30.236Z,104.53
2019-04-06T09:39:05.894Z,94.90
2019-04-06T09:41:41.355Z,95.23
2019-04-06T09:44:48.145Z,101.80
2019-04-06T09:47:51.744Z,92.30
2019-04-06T09:51:04.400Z,93.17
2019-04-06T09:54:06.195Z,110.67
2019-04-06T09:56:54.027Z,96.13
2019-04-06T09:59:56.071Z,96.77
2019-04-06T10:02:50.079Z,92.17
2019-04-06T10:05:32.952Z,85.20
2019-04-06T10:08:27.784Z,91.77
2019-04-06T10:11:21.256Z,87.77
2019-04-06T10:14:24.625Z,94.80
2019-04-06T10:17:21.036Z,83.03
2019-04-06T10:20:11.595Z,84.63
2019-04-06T10:23:03.419Z,78.20
2019-04-06T10:25:53.700Z,87.50
2019-04-06T10:28:45.101Z,80.00
2019-04-06T10:31:38.631Z,87.37
2019-04-06T10:34:36.084Z,90.73
2019-04-06T10:37:25.883Z,91.00
2019-04-06T10:40:08.684Z,95.63
2019-04-06T10:43:12.433Z,105.03
2019-04-06T10:45:53.226Z,101.60
2019-04-06T10:48:43.175Z,116.10
2019-04-06T10:51:46.893Z,106.73
2019-04-06T10:54:48.248Z,100.33
2019-04-06T10:57:39.713Z,94.47
2019-04-06T11:00:40.890Z,98.33
2019-04-06T11:03:41.093Z,85.87
2019-04-06T11:06:29.573Z,83.90
2019-04-06T11:09:19.665Z,83.37
2019-04-06T11:12:20.075Z,79.13
2019-04-06T11:15:10.516Z,77.47
2019-04-06T11:18:06.122Z,82.67
2019-04-06T11:20:49.965Z,73.70
2019-04-06T11:23:41.158Z,80.13
2019-04-06T11:26:36.365Z,76.23
2019-04-06T11:29:27.353Z,80.30
2019-04-06T11:32:21.957Z,83.70
2019-04-06T11:35:20.389Z,73.70
2019-04-06T11:38:01.991Z,78.07
2019-04-06T11:40:45.738Z,74.70
2019-04-06T11:43:50.167Z,74.10
2019-04-06T11:46:27.654Z,73.27
2019-04-06T11:49:11.817Z,74.93
2019-04-06T11:51:58.981Z,73.73
2019-04-06T11:54:49.274Z,75.33
2019-04-06T11:57:41.725Z,74.37
2019-04-06T12:00:39.519Z,77.27
2019-04-06T12:03:30.603Z,70.87
2019-04-06T12:06:20.641Z,70.17
2019-04-06T12:09:22.598Z,77.97
2019-04-06T12:12:07.107Z,73.37
2019-04-06T12:14:52.321Z,74.53
2019-04-06T12:17:55.063Z,68.33
2019-04-06T12:21:01.611Z,68.43
2019-04-06T12:24:08.216Z,66.83
2019-04-06T12:27:18.494Z,67.57
2019-04-06T12:30:14.182Z,73.30
2019-04-06T12:33:09.457Z,70.07
2019-04-06T12:35:59.224Z,69.90
2019-04-06T12:38:52.228Z,70.10
2019-04-06T12:41:52.327Z,69.47
2019-04-06T12:44:44.203Z,86.50
2019-04-06T12:47:34.252Z,97.90
2019-04-06T12:50:27.356Z,82.53
2019-04-06T12:53:17.527Z,74.97
2019-04-06T12:56:09.270Z,74.97
2019-04-06T12:59:04.146Z,85.20
2019-04-06T13:01:58.004Z,75.03
2019-04-06T13:04:59.372Z,71.67
2019-04-06T13:07:44.654Z,76.63
2019-04-06T13:10:36.180Z,67.03
2019-04-06T13:13:26.736Z,66.70
2019-04-06T13:16:21.099Z,71.00
2019-04-06T13:19:08.445Z,68.53
2019-04-06T13:21:57.408Z,64.70
2019-04-06T13:24:38.142Z,76.80
2019-04-06T13:27:25.332Z,79.30
2019-04-06T13:30:22.528Z,67.07
2019-04-06T13:33:14.947Z,66.43
2019-04-06T13:36:05.430Z,72.10
2019-04-06T13:38:59.162Z,81.97
2019-04-06T13:41:58.587Z,63.23
2019-04-06T13:45:02.604Z,77.87
2019-04-06T13:47:43.407Z,62.23
2019-04-06T13:50:50.458Z,69.13
2019-04-06T13:53:36.851Z,68.77
2019-04-06T13:56:28.611Z,72.53
2019-04-06T13:59:18.643Z,74.07
2019-04-06T14:02:29.360Z,57.63
2019-04-06T14:05:23.006Z,61.50
2019-04-06T14:08:17.198Z,60.97
2019-04-06T14:11:20.017Z,62.83
2019-04-06T14:14:12.678Z,62.03
2019-04-06T14:17:13.662Z,65.67
2019-04-06T14:20:07.025Z,56.23
2019-04-06T14:22:58.093Z,56.57
2019-04-06T14:26:06.949Z,69.33
2019-04-06T14:28:57.253Z,78.03
2019-04-06T14:32:06.620Z,66.93
2019-04-06T14:35:04.548Z,50.23
2019-04-06T14:37:55.240Z,58.17
2019-04-06T14:40:46.315Z,82.50
2019-04-06T14:43:37.719Z,93.87
2019-04-06T14:46:23.268Z,67.20
2019-04-06T14:49:27.561Z,75.57
2019-04-06T14:52:06.824Z,81.20
2019-04-06T14:55:07.017Z,71.30
2019-04-06T14:58:01.489Z,53.60
2019-04-06T15:00:53.234Z,53.37
2019-04-06T15:03:42.864Z,103.80
2019-04-06T15:06:32.514Z,93.40
2019-04-06T15:09:14.809Z,141.60
2019-04-06T15:12:08.105Z,145.57
2019-04-06T15:15:05.314Z,67.93
2019-04-06T15:17:51.172Z,64.17
2019-04-06T15:20:48.449Z,65.23
2019-04-06T15:23:46.592Z,50.87
2019-04-06T15:26:46.617Z,47.00
2019-04-06T15:29:35.332Z,53.03
2019-04-06T15:32:26.774Z,51.37
2019-04-06T15:35:22.029Z,49.23
2019-04-06T15:38:04.293Z,45.03
2019-04-06T15:40:56.856Z,49.00
2019-04-06T15:43:48.195Z,57.57
2019-04-06T15:46:39.224Z,50.40
2019-04-06T15:49:39.629Z,52.43
2019-04-06T15:52:33.356Z,48.93
2019-04-06T15:55:27.761Z,53.93
2019-04-06T15:58:21.066Z,43.60
2019-04-06T16:01:22.688Z,46.87
2019-04-06T16:04:13.466Z,43.70
2019-04-06T16:07:10.290Z,44.97
2019-04-06T16:10:16.603Z,48.27
2019-04-06T16:13:08.945Z,43.37
2019-04-06T16:16:04.295Z,48.50
2019-04-06T16:21:53.758Z,51.53
2019-04-06T16:24:40.752Z,56.40
2019-04-06T16:27:39.954Z,62.63
2019-04-06T16:30:37.481Z,65.60
2019-04-06T16:33:34.537Z,57.43
2019-04-06T16:36:18.786Z,58.23
2019-04-06T16:39:02.757Z,54.03
2019-04-06T16:41:58.681Z,55.17
2019-04-06T16:45:06.259Z,54.23
2019-04-06T16:47:52.939Z,62.50
2019-04-06T16:50:39.081Z,62.30
2019-04-06T16:53:32.973Z,94.97
2019-04-06T16:56:21.000Z,90.33
2019-04-06T16:59:13.192Z,107.17
2019-04-06T17:02:03.284Z,97.00
2019-04-06T17:05:25.924Z,95.53
2019-04-06T17:08:27.488Z,89.70
2019-04-06T17:11:36.004Z,67.10
2019-04-06T17:14:26.261Z,64.50
2019-04-06T17:17:11.871Z,70.60
2019-04-06T17:20:02.455Z,61.93
2019-04-06T17:22:48.404Z,68.77
2019-04-06T17:25:51.935Z,71.80
2019-04-06T17:28:52.970Z,73.87
2019-04-06T17:31:49.296Z,66.27
2019-04-06T17:34:56.716Z,82.20
2019-04-06T17:37:49.934Z,84.37
2019-04-06T17:40:43.684Z,85.00
2019-04-06T17:43:52.984Z,95.07
2019-04-06T17:46:57.661Z,83.47
2019-04-06T17:50:02.241Z,74.63
2019-04-06T17:52:57.288Z,62.73
2019-04-06T17:55:52.294Z,55.03
2019-04-06T17:59:02.345Z,53.37
2019-04-06T18:01:59.844Z,56.10
2019-04-06T18:05:02.377Z,67.37
2019-04-06T18:07:56.899Z,59.23
2019-04-06T18:10:51.267Z,63.90
2019-04-06T18:13:41.260Z,54.90
2019-04-06T18:16:13.788Z,62.03
2019-04-06T18:18:49.874Z,64.93
2019-04-06T18:21:24.511Z,64.37
2019-04-06T18:23:58.666Z,73.63
2019-04-06T18:26:30.754Z,84.77
2019-04-06T18:29:05.098Z,80.13
2019-04-06T18:32:03.749Z,80.67
2019-04-06T18:34:36.627Z,88.27
2019-04-06T18:37:36.201Z,86.50
2019-04-06T18:40:22.637Z,75.37
2019-04-06T18:42:56.290Z,59.20
2019-04-06T18:45:38.958Z,58.23
2019-04-06T18:48:13.736Z,65.87
2019-04-06T18:50:46.794Z,70.13
2019-04-06T18:53:20.433Z,72.53
2019-04-06T18:55:53.805Z,58.80
2019-04-06T18:58:28.099Z,62.23
2019-04-06T19:01:02.268Z,60.40
2019-04-06T19:03:37.807Z,71.40
2019-04-06T19:06:10.574Z,78.40
2019-04-06T19:08:43.068Z,83.73
2019-04-06T19:11:16.413Z,98.17
2019-04-06T19:13:49.928Z,110.67
2019-04-06T19:16:22.843Z,125.40
2019-04-06T19:18:58.011Z,113.30
2019-04-06T19:21:31.457Z,102.97
2019-04-06T19:24:04.614Z,104.13
2019-04-06T19:26:37.856Z,98.23
2019-04-06T19:29:11.281Z,98.57
2019-04-06T19:31:46.023Z,93.00
2019-04-06T19:34:19.680Z,111.20
2019-04-06T19:36:53.173Z,116.87
2019-04-06T19:39:26.333Z,113.17
2019-04-06T19:42:00.086Z,107.13
2019-04-06T19:44:33.505Z,102.27
2019-04-06T19:47:06.473Z,113.20
2019-04-06T19:49:39.930Z,104.97
2019-04-06T19:52:13.956Z,86.70
2019-04-06T19:54:47.376Z,83.23
2019-04-06T19:57:21.412Z,80.83
2019-04-06T19:59:57.226Z,86.57
2019-04-06T20:02:29.684Z,73.80
2019-04-06T20:05:02.878Z,74.77
2019-04-06T20:07:36.695Z,76.77
2019-04-06T20:10:12.817Z,93.10
2019-04-06T20:12:46.990Z,71.70
2019-04-06T20:15:20.238Z,89.57
2019-04-06T20:17:55.193Z,78.53
2019-04-06T20:20:28.033Z,80.47
2019-04-06T20:23:01.739Z,76.83
2019-04-06T20:25:36.453Z,71.50
2019-04-06T20:28:10.120Z,91.30
2019-04-06T20:30:44.144Z,92.00
2019-04-06T20:33:19.001Z,89.73
2019-04-06T20:36:02.466Z,74.73
2019-04-06T20:38:37.266Z,75.47
2019-04-06T20:41:12.060Z,75.53
2019-04-06T20:43:45.320Z,74.57
2019-04-06T20:46:20.481Z,79.07
2019-04-06T20:48:54.472Z,74.83
2019-04-06T20:51:30.105Z,79.23
2019-04-06T20:54:04.306Z,81.00
2019-04-06T20:56:37.131Z,83.83
2019-04-06T20:59:13.121Z,84.23
2019-04-06T21:01:45.163Z,82.53
2019-04-06T21:04:18.301Z,87.77
2019-04-06T21:06:51.641Z,83.10
2019-04-06T21:09:26.777Z,92.73
2019-04-06T21:12:02.456Z,88.47
2019-04-06T21:14:36.217Z,83.63
2019-04-06T21:17:09.291Z,90.53
2019-04-06T21:19:43.657Z,90.13
2019-04-06T21:22:17.253Z,100.30
2019-04-06T21:24:50.825Z,91.57
2019-04-06T21:27:24.893Z,101.37
2019-04-06T21:29:57.413Z,97.40
2019-04-06T21:32:31.057Z,98.70
2019-04-06T21:35:05.425Z,100.60
2019-04-06T21:37:38.572Z,97.90
2019-04-06T21:40:11.936Z,120.60
2019-04-06T21:42:45.994Z,101.40
2019-04-06T21:45:25.122Z,108.57
2019-04-06T21:47:59.461Z,106.27
2019-04-06T21:50:34.178Z,98.20
2019-04-06T21:53:25.401Z,102.10
2019-04-06T21:56:03.932Z,94.97
2019-04-06T21:58:34.531Z,105.03
2019-04-06T22:01:09.059Z,98.40
2019-04-06T22:03:41.823Z,105.73
2019-04-06T22:06:14.326Z,101.20
2019-04-06T22:08:47.235Z,110.83
2019-04-06T22:11:20.339Z,108.57
2019-04-06T22:13:57.861Z,104.37
2019-04-06T22:16:32.509Z,112.37
2019-04-06T22:19:05.963Z,110.47
2019-04-06T22:21:39.721Z,107.33
2019-04-06T22:24:12.200Z,111.67
2019-04-06T22:26:46.017Z,107.00
2019-04-06T22:29:20.636Z,102.53
2019-04-06T22:31:53.803Z,107.37
2019-04-06T22:34:36.427Z,107.13
2019-04-06T22:37:00.886Z,109.27
2019-04-06T22:39:34.414Z,116.80
2019-04-06T22:42:06.812Z,113.70
2019-04-06T22:44:40.275Z,111.17
2019-04-06T22:47:14.122Z,109.47
2019-04-06T22:49:46.648Z,105.40
2019-04-06T22:52:20.547Z,102.20
2019-04-06T22:54:54.265Z,105.80
2019-04-06T22:57:26.732Z,97.30
2019-04-06T22:59:59.696Z,96.80
2019-04-06T23:02:41.217Z,100.77
2019-04-06T23:05:38.679Z,91.77
2019-04-06T23:08:13.541Z,110.57
2019-04-06T23:10:46.807Z,117.00
2019-04-06T23:13:21.461Z,99.87
2019-04-06T23:15:54.234Z,106.33
2019-04-06T23:18:28.513Z,101.73
2019-04-06T23:21:02.969Z,100.47
2019-04-06T23:23:37.165Z,100.80
2019-04-06T23:26:28.673Z,100.50
2019-04-06T23:29:03.510Z,91.77
2019-04-06T23:31:37.098Z,96.87
2019-04-06T23:34:11.694Z,98.73
2019-04-06T23:36:45.262Z,87.23
2019-04-06T23:39:20.295Z,91.00
2019-04-06T23:41:54.088Z,85.77
2019-04-06T23:44:27.612Z,99.00
2019-04-06T23:46:59.782Z,87.00
2019-04-06T23:49:34.109Z,98.27
2019-04-06T23:52:07.042Z,99.00
2019-04-06T23:54:42.020Z,93.37
2019-04-06T23:57:15.147Z,90.40
2019-04-06T23:59:47.788Z,80.87
